Time;durP1;ratioP1;P1;durP2;ratioP2;P2;SDS_P1;SDS_P2;PMS_P1;PMS_P2;Temp;Humidity;BMP_temperature;BMP_pressure;BME280_temperature;BME280_humidity;BME280_pressure;Samples;Min_cycle;Max_cycle;Signal;HPM_P1;HPM_P2
2021/04/14 00:00:42;;;;;;;9.20;6.88;;;22.70;41.10;;;;;;6199691;28;80810;-65
2021/04/14 00:03:43;;;;;;;9.18;6.00;;;22.70;41.00;;;;;;6193994;28;82803;-64
2021/04/14 00:06:43;;;;;;;9.45;6.93;;;22.70;40.80;;;;;;6194191;28;80799;-64
2021/04/14 00:09:44;;;;;;;8.88;6.57;;;22.70;41.00;;;;;;6204176;28;80586;-65
2021/04/14 00:12:44;;;;;;;8.27;6.43;;;22.70;40.80;;;;;;6202650;27;81494;-65
2021/04/14 00:15:45;;;;;;;9.10;6.55;;;22.70;40.90;;;;;;6193892;28;80971;-66
2021/04/14 00:18:45;;;;;;;8.80;6.70;;;22.70;41.00;;;;;;6194419;28;80658;-65
2021/04/14 00:21:46;;;;;;;9.85;7.13;;;22.70;41.10;;;;;;6197004;28;81468;-65
2021/04/14 00:24:46;;;;;;;10.13;7.30;;;22.70;41.20;;;;;;6217238;28;80634;-65
2021/04/14 00:27:47;;;;;;;8.85;6.43;;;22.60;41.20;;;;;;6210363;28;81589;-65
2021/04/14 00:30:48;;;;;;;10.10;7.65;;;22.60;41.20;;;;;;6193078;28;80574;-65
2021/04/14 00:33:48;;;;;;;9.98;7.35;;;22.60;41.20;;;;;;6198521;28;81415;-65
2021/04/14 00:36:49;;;;;;;11.27;7.18;;;22.60;41.50;;;;;;6196309;28;80980;-64
2021/04/14 00:39:49;;;;;;;10.27;6.75;;;22.60;41.20;;;;;;6191439;27;80732;-65
2021/04/14 00:42:50;;;;;;;8.90;6.82;;;22.60;41.20;;;;;;6186768;28;81748;-64
2021/04/14 00:45:50;;;;;;;10.93;7.55;;;22.60;41.10;;;;;;6189247;28;81138;-65
2021/04/14 00:48:51;;;;;;;11.50;7.70;;;22.60;41.20;;;;;;6197484;28;81200;-66
2021/04/14 00:51:51;;;;;;;10.65;7.82;;;22.60;41.20;;;;;;6191285;28;81116;-66
2021/04/14 00:54:52;;;;;;;10.27;6.80;;;22.60;41.20;;;;;;6199253;28;81298;-66
2021/04/14 00:57:53;;;;;;;12.23;7.97;;;22.60;41.30;;;;;;6195283;28;80554;-67
2021/04/14 01:00:53;;;;;;;12.10;6.97;;;22.60;41.20;;;;;;6195945;28;80597;-67
2021/04/14 01:03:55;;;;;;;10.38;6.95;;;22.60;41.10;;;;;;6209408;28;81157;-67
2021/04/14 01:06:56;;;;;;;8.77;6.03;;;22.60;41.20;;;;;;6194897;27;80891;-67
2021/04/14 01:09:56;;;;;;;10.02;7.18;;;22.60;41.30;;;;;;6197458;28;81490;-66
2021/04/14 01:12:57;;;;;;;8.57;6.47;;;22.60;41.40;;;;;;6200079;28;80762;-65
2021/04/14 01:15:57;;;;;;;9.77;6.60;;;22.60;41.00;;;;;;6191368;28;81175;-67
2021/04/14 01:18:58;;;;;;;8.02;5.95;;;22.60;41.10;;;;;;6200956;28;81313;-67
2021/04/14 01:21:58;;;;;;;9.25;6.35;;;22.60;41.20;;;;;;6205424;27;81503;-67
2021/04/14 01:24:59;;;;;;;10.30;6.70;;;22.60;41.30;;;;;;6197815;27;80682;-65
2021/04/14 01:27:59;;;;;;;8.18;5.90;;;22.60;41.40;;;;;;6193943;28;81101;-66
2021/04/14 01:31:00;;;;;;;10.23;6.03;;;22.70;41.10;;;;;;6214592;27;80843;-66
2021/04/14 01:34:00;;;;;;;10.80;6.60;;;22.60;41.20;;;;;;6203734;28;81417;-66
2021/04/14 01:37:01;;;;;;;8.77;5.90;;;22.60;40.90;;;;;;6203191;28;83338;-67
2021/04/14 01:40:01;;;;;;;10.43;6.38;;;22.60;41.00;;;;;;6206240;28;81340;-68
2021/04/14 01:43:02;;;;;;;8.02;6.10;;;22.50;41.10;;;;;;6190724;28;83366;-66
2021/04/14 01:46:02;;;;;;;8.68;5.88;;;22.60;40.80;;;;;;6223591;28;81119;-66
2021/04/14 01:49:03;;;;;;;9.25;5.70;;;22.60;40.90;;;;;;6212174;28;80867;-66
2021/04/14 01:52:03;;;;;;;10.65;6.45;;;22.60;40.70;;;;;;6198874;28;80916;-67
2021/04/14 01:55:04;;;;;;;6.90;5.63;;;22.60;40.90;;;;;;6213672;28;81898;-67
2021/04/14 01:58:04;;;;;;;9.50;6.63;;;22.60;40.80;;;;;;6219721;28;81017;-66
2021/04/14 02:01:05;;;;;;;8.55;5.90;;;22.60;40.90;;;;;;6204500;28;80935;-66
2021/04/14 02:04:05;;;;;;;9.27;6.82;;;22.60;40.90;;;;;;6197295;28;81687;-66
2021/04/14 02:07:06;;;;;;;9.35;6.22;;;22.50;40.90;;;;;;6200710;28;81283;-67
2021/04/14 02:10:10;;;;;;;9.77;5.93;;;22.50;40.80;;;;;;6217551;28;82335;-67
2021/04/14 02:13:11;;;;;;;9.27;6.63;;;22.50;40.80;;;;;;6198707;28;80954;-67
2021/04/14 02:16:11;;;;;;;8.90;5.72;;;22.50;40.80;;;;;;6200243;28;80824;-67
2021/04/14 02:19:12;;;;;;;12.10;6.78;;;22.50;40.90;;;;;;6190248;28;81663;-67
2021/04/14 02:22:12;;;;;;;9.52;6.78;;;22.50;40.80;;;;;;6183593;28;86437;-67
2021/04/14 02:25:13;;;;;;;8.35;6.18;;;22.50;40.80;;;;;;6199926;28;80370;-67
2021/04/14 02:28:13;;;;;;;9.93;6.93;;;22.50;40.90;;;;;;6210036;28;83351;-67
2021/04/14 02:31:14;;;;;;;9.32;6.18;;;22.50;40.90;;;;;;6216712;27;80325;-66
2021/04/14 02:34:14;;;;;;;11.80;7.00;;;22.50;41.00;;;;;;6216212;28;83422;-66
2021/04/14 02:37:15;;;;;;;11.50;6.47;;;22.50;40.80;;;;;;6205238;28;81412;-65
2021/04/14 02:40:15;;;;;;;9.82;6.53;;;22.50;41.00;;;;;;6207006;27;81256;-65
2021/04/14 02:43:16;;;;;;;10.93;6.85;;;22.50;40.70;;;;;;6225394;28;81509;-65
2021/04/14 02:46:17;;;;;;;9.90;6.80;;;22.50;40.60;;;;;;6218722;27;80144;-66
2021/04/14 02:49:17;;;;;;;9.35;6.72;;;22.50;40.60;;;;;;6215835;28;81678;-68
2021/04/14 02:52:18;;;;;;;8.77;6.13;;;22.50;40.60;;;;;;6194817;28;80472;-67
2021/04/14 02:55:18;;;;;;;10.10;6.95;;;22.50;40.70;;;;;;6199416;28;82791;-68
2021/04/14 02:58:19;;;;;;;9.05;6.32;;;22.50;40.70;;;;;;6201965;27;80589;-66
2021/04/14 03:01:19;;;;;;;9.38;6.03;;;22.50;40.50;;;;;;6218157;28;81747;-66
2021/04/14 03:04:20;;;;;;;8.25;6.53;;;22.50;40.50;;;;;;6218234;27;82563;-66
2021/04/14 03:07:20;;;;;;;10.27;7.30;;;22.50;40.60;;;;;;6217747;28;80710;-66
2021/04/14 03:10:21;;;;;;;8.25;6.70;;;22.50;40.50;;;;;;6218866;28;81833;-66
2021/04/14 03:13:23;;;;;;;8.93;6.30;;;22.50;40.50;;;;;;6201500;28;80762;-66
2021/04/14 03:16:24;;;;;;;9.32;6.38;;;22.50;40.40;;;;;;6216728;28;81466;-67
2021/04/14 03:19:25;;;;;;;10.68;6.47;;;22.50;40.70;;;;;;6220149;27;80607;-66
2021/04/14 03:22:25;;;;;;;8.30;6.40;;;22.50;41.50;;;;;;6194384;28;81592;-66
2021/04/14 03:25:26;;;;;;;9.20;6.50;;;22.60;39.10;;;;;;6210926;28;81004;-67
2021/04/14 03:28:26;;;;;;;8.18;5.88;;;22.60;38.30;;;;;;6219734;28;80867;-68
2021/04/14 03:31:27;;;;;;;8.98;5.95;;;22.60;38.20;;;;;;6219948;28;80372;-68
2021/04/14 03:34:27;;;;;;;9.90;5.88;;;22.70;38.40;;;;;;6194555;27;82959;-66
2021/04/14 03:37:28;;;;;;;10.43;7.13;;;22.70;40.10;;;;;;6199520;28;81530;-67
2021/04/14 03:40:29;;;;;;;10.50;6.80;;;22.70;39.80;;;;;;6211583;28;81424;-66
2021/04/14 03:43:29;;;;;;;10.35;6.50;;;22.70;40.80;;;;;;6223491;28;80236;-67
2021/04/14 03:46:30;;;;;;;8.85;6.60;;;22.70;40.40;;;;;;6205911;28;81384;-67
2021/04/14 03:49:30;;;;;;;8.95;6.57;;;22.70;40.90;;;;;;6213523;28;80828;-67
2021/04/14 03:52:31;;;;;;;7.43;5.88;;;22.70;40.40;;;;;;6209817;28;80459;-68
2021/04/14 03:55:31;;;;;;;9.00;6.13;;;22.70;40.60;;;;;;6206946;27;81082;-67
2021/04/14 03:58:32;;;;;;;8.75;5.45;;;22.70;40.80;;;;;;6203579;28;80457;-67
2021/04/14 04:01:32;;;;;;;6.75;4.90;;;22.80;41.30;;;;;;6194960;27;81832;-65
2021/04/14 04:04:33;;;;;;;8.93;5.45;;;22.80;40.80;;;;;;6201782;28;80755;-65
2021/04/14 04:07:33;;;;;;;8.82;5.53;;;22.80;40.90;;;;;;6215889;28;81278;-65
2021/04/14 04:10:34;;;;;;;6.88;5.47;;;22.70;41.00;;;;;;6217122;28;80535;-64
2021/04/14 04:13:34;;;;;;;8.32;5.72;;;22.80;41.10;;;;;;6219149;27;80453;-66
2021/04/14 04:16:35;;;;;;;8.65;5.68;;;22.70;40.90;;;;;;6188637;28;81385;-67
2021/04/14 04:19:35;;;;;;;8.43;5.10;;;22.80;40.40;;;;;;6218928;28;81568;-65
2021/04/14 04:22:36;;;;;;;6.75;5.22;;;22.80;40.50;;;;;;6192798;28;80761;-64
2021/04/14 04:25:36;;;;;;;7.63;4.18;;;22.80;41.10;;;;;;6194406;27;83367;-65
2021/04/14 04:28:37;;;;;;;8.68;4.55;;;22.90;40.10;;;;;;6199311;28;80586;-66
2021/04/14 04:31:37;;;;;;;7.28;4.78;;;22.90;39.60;;;;;;6212745;28;84312;-66
2021/04/14 04:34:38;;;;;;;5.85;4.60;;;22.90;39.10;;;;;;6200353;27;80803;-66
2021/04/14 04:37:38;;;;;;;5.55;4.40;;;23.00;38.70;;;;;;6197523;28;81768;-66
2021/04/14 04:40:39;;;;;;;6.18;4.93;;;22.90;38.40;;;;;;6195667;28;80625;-67
2021/04/14 04:43:42;;;;;;;7.47;4.32;;;23.00;38.30;;;;;;6196951;27;81704;-66
2021/04/14 04:46:42;;;;;;;7.28;4.35;;;23.00;37.90;;;;;;6198095;28;80644;-66
2021/04/14 04:49:43;;;;;;;5.72;4.18;;;23.00;38.20;;;;;;6225352;28;80842;-66
2021/04/14 04:52:43;;;;;;;5.55;4.10;;;23.10;38.60;;;;;;6205705;27;82876;-67
2021/04/14 04:55:44;;;;;;;7.38;4.78;;;23.10;37.80;;;;;;6201802;28;80881;-66
2021/04/14 04:58:44;;;;;;;6.50;4.65;;;23.00;37.60;;;;;;6200579;28;81063;-66
2021/04/14 05:01:45;;;;;;;7.60;4.72;;;23.00;37.50;;;;;;6193520;28;80999;-67
2021/04/14 05:04:45;;;;;;;5.70;3.95;;;23.00;37.00;;;;;;6198739;28;81952;-66
2021/04/14 05:07:46;;;;;;;6.88;4.60;;;23.10;36.60;;;;;;6190444;28;80676;-66
2021/04/14 05:10:46;;;;;;;6.28;4.75;;;23.10;36.40;;;;;;6193187;28;81265;-65
2021/04/14 05:13:47;;;;;;;8.40;4.15;;;23.10;36.00;;;;;;6205901;27;80491;-66
2021/04/14 05:16:47;;;;;;;6.18;4.10;;;23.10;35.80;;;;;;6195290;28;81229;-66
2021/04/14 05:19:48;;;;;;;5.68;4.18;;;23.10;35.60;;;;;;6215059;28;81572;-66
2021/04/14 05:22:48;;;;;;;6.20;4.57;;;23.10;35.50;;;;;;6201449;28;81333;-66
2021/04/14 05:25:49;;;;;;;5.03;3.33;;;23.10;35.30;;;;;;6189338;28;81099;-66
2021/04/14 05:28:50;;;;;;;7.57;4.05;;;23.10;35.20;;;;;;6198232;28;81250;-66
2021/04/14 05:31:50;;;;;;;5.43;3.67;;;23.10;35.00;;;;;;6200113;27;82048;-66
2021/04/14 05:34:51;;;;;;;7.68;4.13;;;23.20;35.10;;;;;;6190384;28;80683;-66
2021/04/14 05:37:52;;;;;;;7.65;5.03;;;23.20;35.30;;;;;;6189592;28;80701;-65
2021/04/14 05:40:52;;;;;;;6.72;4.63;;;23.20;36.80;;;;;;6208527;28;80782;-66
2021/04/14 05:43:53;;;;;;;9.05;4.15;;;23.20;35.50;;;;;;6193611;28;81397;-67
2021/04/14 05:46:53;;;;;;;8.75;5.18;;;23.10;36.00;;;;;;6189906;28;80857;-66
2021/04/14 05:49:54;;;;;;;6.50;3.88;;;23.20;35.90;;;;;;6195221;28;81673;-65
2021/04/14 05:52:54;;;;;;;6.65;4.43;;;23.20;35.80;;;;;;6204450;28;80997;-65
2021/04/14 05:55:55;;;;;;;7.63;5.10;;;23.20;35.90;;;;;;6224748;28;83350;-65
2021/04/14 05:58:55;;;;;;;8.45;4.40;;;23.20;35.90;;;;;;6214410;28;81462;-67
2021/04/14 06:01:56;;;;;;;7.35;4.18;;;23.20;36.80;;;;;;6216796;28;80578;-67
2021/04/14 06:04:57;;;;;;;7.50;4.57;;;23.20;36.10;;;;;;6218405;28;82039;-66
2021/04/14 06:07:57;;;;;;;6.53;4.70;;;23.20;36.60;;;;;;6199129;27;80800;-64
2021/04/14 06:10:58;;;;;;;8.00;4.85;;;23.20;35.90;;;;;;6207266;28;89220;-65
2021/04/14 06:13:59;;;;;;;5.68;4.05;;;23.20;36.30;;;;;;6215675;28;80616;-66
2021/04/14 06:16:59;;;;;;;7.60;4.32;;;23.20;37.00;;;;;;6213069;28;80415;-67
2021/04/14 06:20:00;;;;;;;8.85;4.00;;;23.20;36.80;;;;;;6202145;27;81724;-66
2021/04/14 06:23:02;;;;;;;8.02;3.55;;;23.20;37.00;;;;;;6211461;28;80798;-67
2021/04/14 06:29:09;;;;;;;5.13;3.53;;;23.20;37.00;;;;;;6210722;28;80323;-67
2021/04/14 06:32:10;;;;;;;5.07;3.63;;;23.20;37.30;;;;;;6215699;28;81159;-68
2021/04/14 06:35:10;;;;;;;6.03;3.58;;;23.10;36.40;;;;;;6211548;28;82619;-66
2021/04/14 06:38:12;;;;;;;6.10;3.42;;;23.10;36.60;;;;;;6195393;28;82169;-64
2021/04/14 06:44:26;;;;;;;5.35;3.67;;;23.00;35.80;;;;;;6198001;28;86269;-65
2021/04/14 06:47:26;;;;;;;7.30;3.58;;;23.00;35.70;;;;;;6215284;28;82053;-67
2021/04/14 06:50:27;;;;;;;6.57;3.70;;;23.00;35.90;;;;;;6203719;28;80793;-66
2021/04/14 06:53:27;;;;;;;4.32;3.33;;;23.00;36.40;;;;;;6199483;28;80672;-68
2021/04/14 06:56:28;;;;;;;7.97;3.50;;;23.00;36.60;;;;;;6188765;28;81020;-67
2021/04/14 06:59:28;;;;;;;5.80;2.88;;;23.00;36.40;;;;;;6201707;28;81181;-67
2021/04/14 07:02:29;;;;;;;6.13;3.40;;;23.00;36.40;;;;;;6200360;28;81167;-67
2021/04/14 07:05:29;;;;;;;5.40;2.67;;;23.00;36.60;;;;;;6216351;27;80773;-67
2021/04/14 07:08:30;;;;;;;4.95;3.00;;;22.90;36.80;;;;;;6221025;28;81588;-66
2021/04/14 07:11:30;;;;;;;3.83;2.92;;;23.00;36.20;;;;;;6222262;28;80736;-65
2021/04/14 07:14:31;;;;;;;4.07;2.78;;;23.00;36.50;;;;;;6219070;28;80458;-65
2021/04/14 07:17:32;;;;;;;4.70;2.95;;;23.00;36.30;;;;;;6210675;28;80879;-67
2021/04/14 07:20:34;;;;;;;4.65;2.65;;;22.90;36.30;;;;;;6222980;27;81673;-66
2021/04/14 07:23:34;;;;;;;3.85;2.53;;;22.90;36.40;;;;;;6203283;28;80090;-67
2021/04/14 07:26:35;;;;;;;5.18;3.03;;;22.90;36.40;;;;;;6240209;27;81018;-67
2021/04/14 07:29:35;;;;;;;3.70;2.35;;;22.90;36.50;;;;;;6218005;27;80929;-66
2021/04/14 07:32:36;;;;;;;4.22;2.25;;;22.90;36.10;;;;;;6201031;28;81172;-65
2021/04/14 07:35:36;;;;;;;10.20;2.58;;;22.90;36.10;;;;;;6198649;28;80771;-65
2021/04/14 07:38:37;;;;;;;3.63;2.00;;;23.00;36.80;;;;;;6224002;27;83049;-67
2021/04/14 07:41:38;;;;;;;6.45;2.50;;;23.00;36.00;;;;;;6224973;27;80584;-66
2021/04/14 07:44:40;;;;;;;3.15;2.45;;;23.00;36.30;;;;;;6215022;27;82285;-66
2021/04/14 07:47:40;;;;;;;4.10;2.78;;;23.10;35.20;;;;;;6218843;28;81381;-65
2021/04/14 07:50:41;;;;;;;7.55;3.25;;;23.00;35.60;;;;;;6224921;28;80864;-66
2021/04/14 07:53:42;;;;;;;2.92;2.38;;;23.00;35.40;;;;;;6199421;28;80583;-64
2021/04/14 07:56:42;;;;;;;4.88;2.92;;;23.00;35.80;;;;;;6201400;28;80718;-65
2021/04/14 07:59:44;;;;;;;5.25;2.55;;;23.00;35.40;;;;;;6199868;28;82689;-66
2021/04/14 08:02:44;;;;;;;3.92;2.72;;;23.10;35.30;;;;;;6202521;28;80371;-67
2021/04/14 08:05:45;;;;;;;3.97;2.63;;;23.10;35.10;;;;;;6201354;28;80494;-67
2021/04/14 08:08:45;;;;;;;3.30;2.28;;;23.10;34.70;;;;;;6198454;28;81267;-67
2021/04/14 08:11:46;;;;;;;3.45;2.47;;;23.20;34.50;;;;;;6203905;28;80765;-67
2021/04/14 08:14:46;;;;;;;2.85;2.35;;;23.20;34.20;;;;;;6227573;28;82001;-67
2021/04/14 08:17:47;;;;;;;6.18;2.22;;;23.20;34.00;;;;;;6185236;27;80788;-67
2021/04/14 08:20:47;;;;;;;7.32;2.72;;;23.20;33.80;;;;;;6214360;28;81260;-67
2021/04/14 08:23:48;;;;;;;3.13;2.25;;;23.30;33.60;;;;;;6193634;28;81077;-67
2021/04/14 08:26:49;;;;;;;3.85;2.53;;;23.30;33.50;;;;;;6199168;28;80578;-67
2021/04/14 08:29:50;;;;;;;2.40;2.20;;;23.30;33.30;;;;;;6194828;27;80940;-66
2021/04/14 08:32:50;;;;;;;4.00;2.42;;;23.30;33.40;;;;;;6195694;28;81716;-66
2021/04/14 08:35:51;;;;;;;5.20;2.50;;;23.30;33.20;;;;;;6216798;27;80322;-66
2021/04/14 08:38:52;;;;;;;2.75;2.13;;;23.30;33.20;;;;;;6213164;28;80577;-66
2021/04/14 08:41:52;;;;;;;3.17;2.35;;;23.30;33.10;;;;;;6222768;27;81736;-66
2021/04/14 08:44:53;;;;;;;3.13;2.15;;;23.40;33.20;;;;;;6213856;28;80484;-66
2021/04/14 08:47:53;;;;;;;3.83;2.60;;;23.40;33.10;;;;;;6200188;28;81278;-67
2021/04/14 08:50:54;;;;;;;5.00;2.70;;;23.40;34.80;;;;;;6201600;27;81496;-66
2021/04/14 08:53:55;;;;;;;3.40;2.45;;;23.40;34.70;;;;;;6210384;28;81652;-67
2021/04/14 08:56:56;;;;;;;2.85;2.30;;;23.40;35.20;;;;;;6196310;28;80663;-67
2021/04/14 08:59:56;;;;;;;4.55;1.90;;;23.40;35.70;;;;;;6214901;28;83340;-66
2021/04/14 09:02:57;;;;;;;3.42;2.20;;;23.40;34.70;;;;;;6203491;28;80727;-65
2021/04/14 09:05:57;;;;;;;2.58;2.05;;;23.50;38.90;;;;;;6199410;28;81362;-65
2021/04/14 09:08:59;;;;;;;2.95;2.20;;;23.50;37.40;;;;;;6185105;28;80780;-66
2021/04/14 09:12:00;;;;;;;4.32;2.17;;;23.40;37.00;;;;;;6190466;28;80638;-66
2021/04/14 09:15:01;;;;;;;4.20;2.28;;;23.40;34.80;;;;;;6192469;28;80721;-66
2021/04/14 09:18:01;;;;;;;2.63;2.15;;;23.40;34.80;;;;;;6188683;28;81890;-66
2021/04/14 09:21:02;;;;;;;4.80;2.17;;;23.40;36.40;;;;;;6197383;28;80676;-66
2021/04/14 09:24:03;;;;;;;3.33;2.15;;;23.40;35.60;;;;;;6203181;28;81940;-67
2021/04/14 09:27:05;;;;;;;4.38;2.30;;;23.40;36.40;;;;;;6196128;28;81181;-66
2021/04/14 09:30:06;;;;;;;2.85;2.08;;;23.40;36.00;;;;;;6192539;28;80471;-66
2021/04/14 09:33:06;;;;;;;2.70;1.98;;;23.40;35.60;;;;;;6201748;28;80378;-66
2021/04/14 09:36:07;;;;;;;3.15;2.15;;;23.40;36.50;;;;;;6203536;27;80873;-66
2021/04/14 09:39:08;;;;;;;5.68;2.55;;;23.40;36.00;;;;;;6204181;28;80908;-66
2021/04/14 09:42:08;;;;;;;17.50;6.25;;;23.40;37.90;;;;;;6202527;28;80990;-66
2021/04/14 09:45:09;;;;;;;25.70;6.60;;;23.40;40.10;;;;;;6202038;28;81252;-67
2021/04/14 09:48:09;;;;;;;31.58;8.23;;;23.50;39.20;;;;;;6206008;28;81468;-67
2021/04/14 09:51:10;;;;;;;67.45;17.42;;;23.50;41.90;;;;;;6215071;28;83444;-66
2021/04/14 09:54:11;;;;;;;72.13;18.38;;;23.50;42.50;;;;;;6197830;27;83275;-64
2021/04/14 09:57:12;;;;;;;48.08;12.90;;;23.50;41.60;;;;;;6211920;28;83243;-65
2021/04/14 10:00:12;;;;;;;45.78;14.50;;;23.50;40.30;;;;;;6192361;28;84983;-65
2021/04/14 10:03:13;;;;;;;46.67;13.15;;;23.50;40.10;;;;;;6209118;28;85322;-65
2021/04/14 10:06:13;;;;;;;42.38;11.82;;;23.50;40.10;;;;;;6208548;27;83381;-64
2021/04/14 10:09:14;;;;;;;43.78;10.65;;;23.50;38.10;;;;;;6213294;28;83155;-66
2021/04/14 10:12:14;;;;;;;37.90;9.75;;;23.40;37.70;;;;;;6185061;28;83728;-66
2021/04/14 10:15:15;;;;;;;29.27;8.68;;;23.40;38.60;;;;;;6185908;28;84102;-67
2021/04/14 10:18:16;;;;;;;35.28;9.15;;;23.40;37.10;;;;;;6208401;28;83690;-66
2021/04/14 10:21:17;;;;;;;24.75;8.15;;;23.30;37.10;;;;;;6223473;27;81313;-65
2021/04/14 10:24:18;;;;;;;23.45;7.90;;;23.30;36.90;;;;;;6211242;28;83621;-66
2021/04/14 10:27:18;;;;;;;27.88;7.53;;;23.30;36.80;;;;;;6210055;28;80711;-65
2021/04/14 10:30:19;;;;;;;23.90;7.10;;;23.40;36.80;;;;;;6217225;27;80761;-65
2021/04/14 10:33:20;;;;;;;19.02;6.35;;;23.30;36.60;;;;;;6199239;28;80949;-65
2021/04/14 10:36:20;;;;;;;16.92;5.68;;;23.30;36.80;;;;;;6198295;28;81226;-65
2021/04/14 10:39:21;;;;;;;14.15;5.00;;;23.30;36.90;;;;;;6195908;28;81499;-68
2021/04/14 10:42:21;;;;;;;19.27;6.45;;;23.30;37.40;;;;;;6202891;28;81311;-67
2021/04/14 10:45:22;;;;;;;11.75;4.40;;;23.30;36.90;;;;;;6222484;27;80611;-68
2021/04/14 10:48:22;;;;;;;9.98;4.05;;;23.30;36.80;;;;;;6214994;27;83191;-67
2021/04/14 10:51:23;;;;;;;12.38;4.70;;;23.30;36.30;;;;;;6215809;28;83548;-67
2021/04/14 10:54:24;;;;;;;14.45;4.25;;;23.30;37.90;;;;;;6211407;28;85292;-67
2021/04/14 10:57:24;;;;;;;9.13;3.88;;;23.30;36.90;;;;;;6225569;27;83500;-67
2021/04/14 11:00:29;;;;;;;8.38;3.47;;;23.30;37.20;;;;;;6213394;28;80855;-66
2021/04/14 11:03:30;;;;;;;12.52;4.78;;;23.30;36.80;;;;;;6215240;27;81085;-66
2021/04/14 11:06:30;;;;;;;10.88;3.47;;;23.30;37.60;;;;;;6210885;28;81482;-67
2021/04/14 11:09:31;;;;;;;9.55;3.45;;;23.30;37.20;;;;;;6213664;28;80866;-67
2021/04/14 11:12:32;;;;;;;9.38;4.05;;;23.20;37.00;;;;;;6191298;28;80783;-66
2021/04/14 11:15:32;;;;;;;9.18;2.92;;;23.20;36.60;;;;;;6202550;28;80545;-67
2021/04/14 11:18:33;;;;;;;8.00;3.28;;;23.20;36.50;;;;;;6207255;28;91030;-69
2021/04/14 11:21:33;;;;;;;8.35;2.63;;;23.20;36.50;;;;;;6207899;28;80514;-69
2021/04/14 11:24:34;;;;;;;10.75;3.50;;;23.20;37.30;;;;;;6206229;27;80711;-68
2021/04/14 11:27:34;;;;;;;7.55;2.85;;;23.20;37.10;;;;;;6212528;28;81400;-68
2021/04/14 11:30:35;;;;;;;5.10;2.67;;;23.20;38.20;;;;;;6212699;28;80715;-66
2021/04/14 11:33:35;;;;;;;5.35;2.90;;;23.20;37.50;;;;;;6207835;28;80707;-67
2021/04/14 11:36:36;;;;;;;6.43;3.00;;;23.20;37.70;;;;;;6215522;27;80857;-68
2021/04/14 11:39:37;;;;;;;4.32;2.30;;;23.20;37.20;;;;;;6215134;28;81634;-67
2021/04/14 11:42:37;;;;;;;6.05;2.35;;;23.20;37.00;;;;;;6199382;28;80385;-67
2021/04/14 11:45:38;;;;;;;4.53;2.13;;;23.20;36.60;;;;;;6197963;28;81472;-69
2021/04/14 11:48:39;;;;;;;7.88;2.10;;;23.20;36.20;;;;;;6206439;28;81604;-67
2021/04/14 11:51:39;;;;;;;12.98;3.58;;;23.20;36.20;;;;;;6214463;28;80980;-66
2021/04/14 11:54:40;;;;;;;10.68;3.25;;;23.10;36.30;;;;;;6202770;28;81204;-67
2021/04/14 11:57:40;;;;;;;11.68;3.03;;;23.20;37.60;;;;;;6200406;28;80443;-67
2021/04/14 12:00:41;;;;;;;11.05;4.43;;;23.20;37.70;;;;;;6215512;27;80733;-66
2021/04/14 12:03:43;;;;;;;10.23;4.20;;;23.10;36.60;;;;;;6215293;27;80680;-67
2021/04/14 12:06:43;;;;;;;12.93;4.05;;;23.20;36.60;;;;;;6198274;28;80595;-68
2021/04/14 12:09:44;;;;;;;9.07;3.30;;;23.20;37.30;;;;;;6205127;27;83220;-67
2021/04/14 12:12:45;;;;;;;10.20;3.28;;;23.20;36.40;;;;;;6215578;28;80383;-68
2021/04/14 12:15:45;;;;;;;6.55;3.17;;;23.10;36.70;;;;;;6213641;27;81740;-68
2021/04/14 12:18:46;;;;;;;8.40;3.88;;;23.20;36.50;;;;;;6193891;28;81181;-67
2021/04/14 12:21:46;;;;;;;7.82;3.30;;;23.20;36.50;;;;;;6203936;28;81250;-67
2021/04/14 12:24:47;;;;;;;9.68;2.97;;;23.20;36.20;;;;;;6217042;27;83766;-68
2021/04/14 12:27:47;;;;;;;6.15;3.30;;;23.20;36.20;;;;;;6217378;28;80660;-69
2021/04/14 12:30:48;;;;;;;8.35;3.15;;;23.30;36.30;;;;;;6210739;28;83745;-69
2021/04/14 12:33:49;;;;;;;8.27;3.47;;;23.30;36.10;;;;;;6204956;28;80317;-68
2021/04/14 12:36:49;;;;;;;6.10;2.85;;;23.30;36.00;;;;;;6192921;28;80487;-67
2021/04/14 12:39:50;;;;;;;5.82;2.78;;;23.30;36.00;;;;;;6183493;28;80448;-68
2021/04/14 12:42:50;;;;;;;6.28;2.97;;;23.40;36.00;;;;;;6218986;28;80423;-65
2021/04/14 12:45:51;;;;;;;3.47;2.58;;;23.40;35.60;;;;;;6203828;27;81006;-68
2021/04/14 12:48:51;;;;;;;4.05;3.03;;;23.40;35.20;;;;;;6198174;28;81205;-67
2021/04/14 12:51:52;;;;;;;4.50;2.63;;;23.40;34.80;;;;;;6194840;28;83812;-66
2021/04/14 12:54:52;;;;;;;5.03;3.00;;;23.40;34.50;;;;;;6186735;28;80356;-65
2021/04/14 12:57:53;;;;;;;7.05;2.58;;;23.40;34.10;;;;;;6201685;27;80965;-67
2021/04/14 13:00:53;;;;;;;4.28;2.50;;;23.40;33.90;;;;;;6218140;27;81625;-64
2021/04/14 13:03:54;;;;;;;6.18;3.10;;;23.40;33.70;;;;;;6213891;28;81196;-65
2021/04/14 13:06:55;;;;;;;4.15;2.55;;;23.40;33.40;;;;;;6195267;28;80659;-66
2021/04/14 13:09:55;;;;;;;5.30;3.13;;;23.40;33.20;;;;;;6190765;28;80905;-65
2021/04/14 13:12:56;;;;;;;3.83;2.80;;;23.50;33.20;;;;;;6191987;28;81814;-65
2021/04/14 13:15:56;;;;;;;6.72;3.15;;;23.50;33.80;;;;;;6203918;27;80957;-69
2021/04/14 13:18:57;;;;;;;5.30;3.13;;;23.50;34.00;;;;;;6185888;28;80779;-67
2021/04/14 13:21:58;;;;;;;5.10;2.50;;;23.50;34.00;;;;;;6188225;28;83214;-65
2021/04/14 13:24:58;;;;;;;5.60;2.53;;;23.50;34.00;;;;;;6198594;28;81722;-66
2021/04/14 13:27:59;;;;;;;5.40;2.80;;;23.50;33.90;;;;;;6201780;28;81646;-67
2021/04/14 13:30:59;;;;;;;2.80;2.47;;;23.50;33.90;;;;;;6195679;28;83517;-68
2021/04/14 13:34:00;;;;;;;3.40;2.10;;;23.50;33.80;;;;;;6200406;28;81530;-67
2021/04/14 13:37:00;;;;;;;4.68;2.67;;;23.50;33.70;;;;;;6212495;28;80468;-67
2021/04/14 13:40:01;;;;;;;3.42;2.30;;;23.50;33.70;;;;;;6200173;27;81306;-66
2021/04/14 13:43:01;;;;;;;4.28;2.83;;;23.50;33.60;;;;;;6191952;28;81195;-67
2021/04/14 13:46:02;;;;;;;3.08;2.30;;;23.50;33.90;;;;;;6196885;27;80271;-67
2021/04/14 13:49:03;;;;;;;2.92;2.03;;;23.50;33.00;;;;;;6205150;28;81527;-67
2021/04/14 13:52:03;;;;;;;3.40;2.45;;;23.50;33.00;;;;;;6216807;27;80703;-66
2021/04/14 13:55:04;;;;;;;4.95;2.30;;;23.50;32.80;;;;;;6207348;28;88198;-68
2021/04/14 13:58:05;;;;;;;4.95;2.10;;;23.50;33.30;;;;;;6198945;28;81448;-67
2021/04/14 14:01:05;;;;;;;4.18;2.22;;;23.50;32.60;;;;;;6182888;28;81619;-67
2021/04/14 14:04:06;;;;;;;2.83;2.08;;;23.50;32.60;;;;;;6221893;28;80897;-68
2021/04/14 14:07:06;;;;;;;3.20;1.90;;;23.40;32.90;;;;;;6208858;27;81532;-68
2021/04/14 14:10:07;;;;;;;4.00;2.25;;;23.50;32.40;;;;;;6192072;28;80798;-66
2021/04/14 14:13:07;;;;;;;3.92;2.28;;;23.40;32.40;;;;;;6190852;28;80964;-67
2021/04/14 14:16:08;;;;;;;6.32;2.20;;;23.50;32.80;;;;;;6191299;28;80588;-66
2021/04/14 14:19:08;;;;;;;4.22;2.20;;;23.50;33.00;;;;;;6197670;28;81685;-67
2021/04/14 14:22:09;;;;;;;2.97;2.10;;;23.40;33.50;;;;;;6211511;28;84440;-65
2021/04/14 14:25:10;;;;;;;3.72;2.45;;;23.40;33.90;;;;;;6197111;28;80351;-67
2021/04/14 14:28:10;;;;;;;5.78;2.75;;;23.40;34.20;;;;;;6194965;28;80922;-66
2021/04/14 14:31:11;;;;;;;4.85;2.63;;;23.40;34.80;;;;;;6193305;28;80876;-66
2021/04/14 14:34:12;;;;;;;3.25;2.53;;;23.40;34.80;;;;;;6188527;28;81340;-67
2021/04/14 14:37:12;;;;;;;2.83;2.08;;;23.40;34.40;;;;;;6197649;28;80489;-67
2021/04/14 14:40:13;;;;;;;3.05;2.15;;;23.40;34.80;;;;;;6210123;28;80513;-65
2021/04/14 14:43:14;;;;;;;4.82;2.40;;;23.30;34.30;;;;;;6202757;28;81202;-66
2021/04/14 14:46:15;;;;;;;3.40;2.20;;;23.30;34.50;;;;;;6194456;28;81147;-66
2021/04/14 14:49:15;;;;;;;3.67;2.28;;;23.30;34.40;;;;;;6196928;28;82789;-67
2021/04/14 14:52:16;;;;;;;8.52;2.55;;;23.30;34.70;;;;;;6185386;28;80517;-66
2021/04/14 14:55:17;;;;;;;3.08;2.40;;;23.30;34.30;;;;;;6197705;28;82002;-65
2021/04/14 14:58:17;;;;;;;5.03;2.33;;;23.30;34.10;;;;;;6199374;28;83303;-67
2021/04/14 15:01:18;;;;;;;2.75;2.10;;;23.30;34.40;;;;;;6204017;28;80708;-69
2021/04/14 15:04:19;;;;;;;4.05;2.35;;;23.20;34.00;;;;;;6203606;27;81875;-66
2021/04/14 15:07:19;;;;;;;4.20;2.47;;;23.20;34.30;;;;;;6202600;28;82443;-67
2021/04/14 15:10:20;;;;;;;4.50;2.22;;;23.20;34.30;;;;;;6199430;28;81054;-66
2021/04/14 15:13:20;;;;;;;3.40;1.90;;;23.20;34.10;;;;;;6200236;28;81715;-67
2021/04/14 15:16:21;;;;;;;3.63;2.25;;;23.20;34.10;;;;;;6196459;28;81483;-66
2021/04/14 15:19:22;;;;;;;4.80;1.92;;;23.20;34.40;;;;;;6211502;28;80771;-67
2021/04/14 15:22:23;;;;;;;3.25;2.45;;;23.20;34.50;;;;;;6213206;27;81757;-67
2021/04/14 15:25:23;;;;;;;3.90;2.10;;;23.20;34.50;;;;;;6225074;27;80933;-67
2021/04/14 15:28:24;;;;;;;2.67;1.95;;;23.20;34.10;;;;;;6204315;27;81809;-68
2021/04/14 15:31:24;;;;;;;2.85;2.00;;;23.20;34.20;;;;;;6213758;28;81585;-67
2021/04/14 15:34:25;;;;;;;5.65;2.20;;;23.20;34.60;;;;;;6207689;27;81620;-67
2021/04/14 15:37:25;;;;;;;4.75;2.25;;;23.20;34.10;;;;;;6208229;27;81217;-67
2021/04/14 15:40:26;;;;;;;4.90;2.03;;;23.20;34.00;;;;;;6195040;28;80704;-67
2021/04/14 15:43:26;;;;;;;4.30;2.40;;;23.10;34.30;;;;;;6197605;28;81377;-67